sensor_id;sensor_type;location;lat;lon;timestamp;pressure;altitude;pressure_sealevel;temperature;humidity
7834;BME280;3962;42.696;23.354;2022-09-09T00:01:19;95442.81;;;19.04;72.34
7834;BME280;3962;42.696;23.354;2022-09-09T00:03:55;95431.34;;;18.95;71.96
7834;BME280;3962;42.696;23.354;2022-09-09T00:06:26;95438.06;;;19.06;72.45
7834;BME280;3962;42.696;23.354;2022-09-09T00:09:01;95442.81;;;19.04;72.82
7834;BME280;3962;42.696;23.354;2022-09-09T00:11:37;95440.97;;;19.04;73.20
7834;BME280;3962;42.696;23.354;2022-09-09T00:14:13;95436.34;;;18.98;73.05
7834;BME280;3962;42.696;23.354;2022-09-09T00:16:44;95442.97;;;18.96;72.60
7834;BME280;3962;42.696;23.354;2022-09-09T00:19:20;95438.44;;;18.96;73.29
7834;BME280;3962;42.696;23.354;2022-09-09T00:21:56;95440.72;;;18.99;73.41
7834;BME280;3962;42.696;23.354;2022-09-09T00:24:30;95429.31;;;18.97;74.15
7834;BME280;3962;42.696;23.354;2022-09-09T00:27:07;95426.78;;;18.96;74.24
7834;BME280;3962;42.696;23.354;2022-09-09T00:29:39;95419.09;;;18.93;74.31
7834;BME280;3962;42.696;23.354;2022-09-09T00:32:12;95423.47;;;18.94;73.50
7834;BME280;3962;42.696;23.354;2022-09-09T00:34:46;95416.31;;;18.86;73.27
7834;BME280;3962;42.696;23.354;2022-09-09T00:37:13;95413.31;;;18.75;73.13
7834;BME280;3962;42.696;23.354;2022-09-09T00:39:42;95411.59;;;18.68;73.30
7834;BME280;3962;42.696;23.354;2022-09-09T00:42:16;95406.97;;;18.62;74.08
7834;BME280;3962;42.696;23.354;2022-09-09T00:44:56;95403.84;;;18.58;74.32
7834;BME280;3962;42.696;23.354;2022-09-09T00:47:39;95400.63;;;18.48;74.26
7834;BME280;3962;42.696;23.354;2022-09-09T00:50:27;95394.38;;;18.27;74.62
7834;BME280;3962;42.696;23.354;2022-09-09T00:53:15;95411.84;;;18.31;75.44
7834;BME280;3962;42.696;23.354;2022-09-09T00:55:48;95408.41;;;18.22;76.58
7834;BME280;3962;42.696;23.354;2022-09-09T00:58:18;95392.16;;;18.16;76.61
7834;BME280;3962;42.696;23.354;2022-09-09T01:00:47;95404.69;;;18.23;76.64
7834;BME280;3962;42.696;23.354;2022-09-09T01:03:22;95407.38;;;18.23;77.42
7834;BME280;3962;42.696;23.354;2022-09-09T01:05:55;95375.66;;;18.04;77.45
7834;BME280;3962;42.696;23.354;2022-09-09T01:11:24;95399.78;;;18.12;77.80
7834;BME280;3962;42.696;23.354;2022-09-09T01:13:56;95407.88;;;18.12;77.75
7834;BME280;3962;42.696;23.354;2022-09-09T01:16:28;95413.81;;;18.08;77.98
7834;BME280;3962;42.696;23.354;2022-09-09T01:18:58;95412.72;;;18.02;78.09
7834;BME280;3962;42.696;23.354;2022-09-09T01:21:34;95410.22;;;18.01;78.22
7834;BME280;3962;42.696;23.354;2022-09-09T01:24:19;95413.94;;;18.00;78.39
7834;BME280;3962;42.696;23.354;2022-09-09T01:26:50;95411.44;;;17.98;78.84
7834;BME280;3962;42.696;23.354;2022-09-09T01:29:19;95406.88;;;17.99;79.23
7834;BME280;3962;42.696;23.354;2022-09-09T01:31:53;95412.78;;;18.09;78.59
7834;BME280;3962;42.696;23.354;2022-09-09T01:34:22;95414.22;;;18.05;78.61
7834;BME280;3962;42.696;23.354;2022-09-09T01:36:55;95414.97;;;17.99;78.87
7834;BME280;3962;42.696;23.354;2022-09-09T01:39:24;95415.34;;;17.96;79.37
7834;BME280;3962;42.696;23.354;2022-09-09T01:41:53;95418.50;;;17.99;79.39
7834;BME280;3962;42.696;23.354;2022-09-09T01:44:22;95421.84;;;18.01;79.03
7834;BME280;3962;42.696;23.354;2022-09-09T01:46:49;95420.41;;;18.05;78.72
7834;BME280;3962;42.696;23.354;2022-09-09T01:49:16;95420.34;;;17.99;78.56
7834;BME280;3962;42.696;23.354;2022-09-09T01:51:47;95422.41;;;17.97;78.22
7834;BME280;3962;42.696;23.354;2022-09-09T01:54:15;95428.81;;;17.96;78.69
7834;BME280;3962;42.696;23.354;2022-09-09T01:56:47;95427.50;;;17.92;78.99
7834;BME280;3962;42.696;23.354;2022-09-09T01:59:35;95438.63;;;18.03;78.94
7834;BME280;3962;42.696;23.354;2022-09-09T02:02:09;95436.56;;;18.05;78.96
7834;BME280;3962;42.696;23.354;2022-09-09T02:04:38;95424.91;;;17.98;78.97
7834;BME280;3962;42.696;23.354;2022-09-09T02:07:25;95426.00;;;17.89;79.43
7834;BME280;3962;42.696;23.354;2022-09-09T02:10:00;95419.81;;;17.89;79.51
7834;BME280;3962;42.696;23.354;2022-09-09T02:12:28;95413.91;;;17.79;79.87
7834;BME280;3962;42.696;23.354;2022-09-09T02:15:03;95417.88;;;17.83;79.77
7834;BME280;3962;42.696;23.354;2022-09-09T02:17:34;95408.41;;;17.87;80.12
7834;BME280;3962;42.696;23.354;2022-09-09T02:20:06;95409.69;;;17.91;79.63
7834;BME280;3962;42.696;23.354;2022-09-09T02:22:35;95402.00;;;17.88;79.88
7834;BME280;3962;42.696;23.354;2022-09-09T02:25:07;95409.34;;;17.79;80.20
7834;BME280;3962;42.696;23.354;2022-09-09T02:27:34;95415.66;;;17.72;80.16
7834;BME280;3962;42.696;23.354;2022-09-09T02:30:04;95408.72;;;17.63;78.74
7834;BME280;3962;42.696;23.354;2022-09-09T02:32:32;95413.63;;;17.59;78.68
7834;BME280;3962;42.696;23.354;2022-09-09T02:35:05;95417.34;;;17.58;78.85
7834;BME280;3962;42.696;23.354;2022-09-09T02:37:38;95425.50;;;17.65;79.27
7834;BME280;3962;42.696;23.354;2022-09-09T02:40:06;95416.59;;;17.64;79.49
7834;BME280;3962;42.696;23.354;2022-09-09T02:42:38;95423.94;;;17.56;80.14
7834;BME280;3962;42.696;23.354;2022-09-09T02:45:09;95421.97;;;17.35;80.95
7834;BME280;3962;42.696;23.354;2022-09-09T02:47:41;95426.03;;;17.17;81.91
7834;BME280;3962;42.696;23.354;2022-09-09T02:50:13;95434.25;;;17.15;82.58
7834;BME280;3962;42.696;23.354;2022-09-09T02:52:54;95434.50;;;17.06;82.82
7834;BME280;3962;42.696;23.354;2022-09-09T02:55:33;95426.72;;;16.96;83.17
7834;BME280;3962;42.696;23.354;2022-09-09T02:58:04;95431.44;;;16.94;83.26
7834;BME280;3962;42.696;23.354;2022-09-09T03:00:33;95425.09;;;16.87;83.43
7834;BME280;3962;42.696;23.354;2022-09-09T03:03:03;95426.50;;;16.83;83.76
7834;BME280;3962;42.696;23.354;2022-09-09T03:05:29;95415.09;;;16.81;83.58
7834;BME280;3962;42.696;23.354;2022-09-09T03:07:57;95422.78;;;16.84;83.55
7834;BME280;3962;42.696;23.354;2022-09-09T03:10:24;95433.16;;;16.87;83.56
7834;BME280;3962;42.696;23.354;2022-09-09T03:12:50;95433.94;;;16.96;83.75
7834;BME280;3962;42.696;23.354;2022-09-09T03:15:17;95422.00;;;16.98;83.55
7834;BME280;3962;42.696;23.354;2022-09-09T03:17:46;95431.66;;;17.07;83.48
7834;BME280;3962;42.696;23.354;2022-09-09T03:20:13;95431.47;;;17.09;83.47
7834;BME280;3962;42.696;23.354;2022-09-09T03:22:39;95424.22;;;17.09;83.57
7834;BME280;3962;42.696;23.354;2022-09-09T03:25:07;95428.88;;;17.15;83.37
7834;BME280;3962;42.696;23.354;2022-09-09T03:27:34;95419.78;;;17.16;83.00
7834;BME280;3962;42.696;23.354;2022-09-09T03:30:01;95429.72;;;17.16;83.04
7834;BME280;3962;42.696;23.354;2022-09-09T03:32:29;95422.22;;;17.11;83.09
7834;BME280;3962;42.696;23.354;2022-09-09T03:34:58;95425.81;;;17.18;83.08
7834;BME280;3962;42.696;23.354;2022-09-09T03:37:25;95424.22;;;17.09;83.10
7834;BME280;3962;42.696;23.354;2022-09-09T03:39:51;95433.50;;;17.07;83.50
7834;BME280;3962;42.696;23.354;2022-09-09T03:42:20;95422.84;;;17.13;83.22
7834;BME280;3962;42.696;23.354;2022-09-09T03:44:47;95421.47;;;17.17;83.05
7834;BME280;3962;42.696;23.354;2022-09-09T03:47:16;95427.03;;;17.16;82.83
7834;BME280;3962;42.696;23.354;2022-09-09T03:49:44;95430.00;;;17.21;83.27
7834;BME280;3962;42.696;23.354;2022-09-09T03:52:12;95436.56;;;17.18;82.98
7834;BME280;3962;42.696;23.354;2022-09-09T03:54:39;95428.88;;;17.15;83.01
7834;BME280;3962;42.696;23.354;2022-09-09T03:57:08;95435.09;;;17.16;82.90
7834;BME280;3962;42.696;23.354;2022-09-09T03:59:35;95433.53;;;17.21;82.67
7834;BME280;3962;42.696;23.354;2022-09-09T04:02:02;95427.31;;;17.21;82.49
7834;BME280;3962;42.696;23.354;2022-09-09T04:04:29;95436.22;;;17.21;82.68
7834;BME280;3962;42.696;23.354;2022-09-09T04:06:56;95438.63;;;17.16;82.78
7834;BME280;3962;42.696;23.354;2022-09-09T04:09:24;95449.47;;;17.23;83.03
7834;BME280;3962;42.696;23.354;2022-09-09T04:11:51;95420.81;;;17.15;82.42
7834;BME280;3962;42.696;23.354;2022-09-09T04:14:18;95444.03;;;17.31;82.55
7834;BME280;3962;42.696;23.354;2022-09-09T04:16:45;95435.13;;;17.30;82.43
7834;BME280;3962;42.696;23.354;2022-09-09T04:19:13;95436.88;;;17.23;82.56
7834;BME280;3962;42.696;23.354;2022-09-09T04:21:40;95414.03;;;17.05;83.11
7834;BME280;3962;42.696;23.354;2022-09-09T04:24:07;95437.31;;;17.12;83.32
7834;BME280;3962;42.696;23.354;2022-09-09T04:26:36;95432.28;;;17.09;83.39
7834;BME280;3962;42.696;23.354;2022-09-09T04:29:04;95430.34;;;17.03;80.98
7834;BME280;3962;42.696;23.354;2022-09-09T04:31:33;95430.72;;;17.00;80.00
7834;BME280;3962;42.696;23.354;2022-09-09T04:34:00;95434.34;;;17.07;80.19
7834;BME280;3962;42.696;23.354;2022-09-09T04:36:31;95430.72;;;17.15;80.50
7834;BME280;3962;42.696;23.354;2022-09-09T04:38:58;95430.53;;;17.16;80.50
7834;BME280;3962;42.696;23.354;2022-09-09T04:41:26;95429.53;;;17.17;80.51
7834;BME280;3962;42.696;23.354;2022-09-09T04:43:55;95439.19;;;17.26;79.96
7834;BME280;3962;42.696;23.354;2022-09-09T04:46:22;95442.84;;;17.91;79.18
7834;BME280;3962;42.696;23.354;2022-09-09T04:48:49;95440.25;;;17.83;77.46
7834;BME280;3962;42.696;23.354;2022-09-09T04:51:16;95437.38;;;17.70;76.85
7834;BME280;3962;42.696;23.354;2022-09-09T04:53:43;95420.50;;;17.47;77.27
7834;BME280;3962;42.696;23.354;2022-09-09T04:56:14;95436.34;;;17.42;77.81
7834;BME280;3962;42.696;23.354;2022-09-09T04:58:42;95435.22;;;17.37;78.08
7834;BME280;3962;42.696;23.354;2022-09-09T05:01:12;95396.69;;;17.22;78.34
7834;BME280;3962;42.696;23.354;2022-09-09T05:03:39;95420.47;;;17.33;78.44
7834;BME280;3962;42.696;23.354;2022-09-09T05:06:07;95435.44;;;17.50;78.11
7834;BME280;3962;42.696;23.354;2022-09-09T05:08:36;95425.31;;;17.52;78.00
7834;BME280;3962;42.696;23.354;2022-09-09T05:11:13;95419.94;;;17.52;78.07
7834;BME280;3962;42.696;23.354;2022-09-09T05:13:40;95400.84;;;17.47;78.14
7834;BME280;3962;42.696;23.354;2022-09-09T05:16:07;95417.34;;;17.44;78.23
7834;BME280;3962;42.696;23.354;2022-09-09T05:18:38;95403.94;;;17.36;78.88
7834;BME280;3962;42.696;23.354;2022-09-09T05:21:04;95421.41;;;17.54;78.01
7834;BME280;3962;42.696;23.354;2022-09-09T05:23:32;95397.94;;;17.48;78.16
7834;BME280;3962;42.696;23.354;2022-09-09T05:25:59;95426.13;;;17.81;77.84
7834;BME280;3962;42.696;23.354;2022-09-09T05:28:26;95422.31;;;17.90;77.37
7834;BME280;3962;42.696;23.354;2022-09-09T05:30:58;95417.84;;;17.97;76.74
7834;BME280;3962;42.696;23.354;2022-09-09T05:33:26;95407.97;;;18.04;76.77
7834;BME280;3962;42.696;23.354;2022-09-09T05:35:59;95408.03;;;18.25;75.91
7834;BME280;3962;42.696;23.354;2022-09-09T05:38:27;95417.78;;;18.26;76.06
7834;BME280;3962;42.696;23.354;2022-09-09T05:40:54;95420.19;;;18.77;75.62
7834;BME280;3962;42.696;23.354;2022-09-09T05:43:22;95414.41;;;19.29;73.33
7834;BME280;3962;42.696;23.354;2022-09-09T05:45:59;95421.41;;;19.51;73.00
7834;BME280;3962;42.696;23.354;2022-09-09T05:48:28;95424.09;;;19.44;71.88
7834;BME280;3962;42.696;23.354;2022-09-09T05:50:56;95426.06;;;19.29;71.28
7834;BME280;3962;42.696;23.354;2022-09-09T05:53:24;95420.44;;;19.31;71.14
7834;BME280;3962;42.696;23.354;2022-09-09T05:55:58;95420.66;;;19.29;69.72
7834;BME280;3962;42.696;23.354;2022-09-09T05:58:25;95428.75;;;19.29;70.29
7834;BME280;3962;42.696;23.354;2022-09-09T06:00:52;95426.06;;;19.29;69.29
7834;BME280;3962;42.696;23.354;2022-09-09T06:03:26;95428.97;;;19.34;68.97
7834;BME280;3962;42.696;23.354;2022-09-09T06:05:57;95438.81;;;19.42;68.92
7834;BME280;3962;42.696;23.354;2022-09-09T06:08:25;95433.41;;;19.42;68.19
7834;BME280;3962;42.696;23.354;2022-09-09T06:10:52;95444.84;;;19.44;67.68
7834;BME280;3962;42.696;23.354;2022-09-09T06:13:19;95437.97;;;19.41;67.51
7834;BME280;3962;42.696;23.354;2022-09-09T06:15:49;95448.59;;;19.49;67.52
7834;BME280;3962;42.696;23.354;2022-09-09T06:18:17;95446.13;;;19.48;66.89
7834;BME280;3962;42.696;23.354;2022-09-09T06:20:53;95434.72;;;19.52;67.01
7834;BME280;3962;42.696;23.354;2022-09-09T06:23:20;95438.97;;;19.68;65.86
7834;BME280;3962;42.696;23.354;2022-09-09T06:25:49;95435.38;;;19.61;65.51
7834;BME280;3962;42.696;23.354;2022-09-09T06:28:16;95432.03;;;19.52;65.94
7834;BME280;3962;42.696;23.354;2022-09-09T06:30:44;95440.00;;;19.67;66.31
7834;BME280;3962;42.696;23.354;2022-09-09T06:33:11;95439.44;;;19.78;65.99
7834;BME280;3962;42.696;23.354;2022-09-09T06:35:38;95432.44;;;19.90;65.40
7834;BME280;3962;42.696;23.354;2022-09-09T06:38:04;95425.41;;;20.02;65.77
7834;BME280;3962;42.696;23.354;2022-09-09T06:40:31;95424.72;;;20.14;65.01
7834;BME280;3962;42.696;23.354;2022-09-09T06:43:00;95429.25;;;20.14;65.05
7834;BME280;3962;42.696;23.354;2022-09-09T06:45:28;95429.06;;;20.15;64.77
7834;BME280;3962;42.696;23.354;2022-09-09T06:47:55;95420.97;;;20.15;64.53
7834;BME280;3962;42.696;23.354;2022-09-09T06:50:22;95424.72;;;20.21;64.24
7834;BME280;3962;42.696;23.354;2022-09-09T06:52:49;95436.78;;;20.25;64.21
7834;BME280;3962;42.696;23.354;2022-09-09T06:55:17;95440.16;;;20.33;63.79
7834;BME280;3962;42.696;23.354;2022-09-09T06:57:44;95443.94;;;20.52;63.78
7834;BME280;3962;42.696;23.354;2022-09-09T07:00:13;95440.03;;;20.67;63.36
7834;BME280;3962;42.696;23.354;2022-09-09T07:02:40;95448.22;;;20.87;62.75
7834;BME280;3962;42.696;23.354;2022-09-09T07:05:08;95452.38;;;20.96;62.46
7834;BME280;3962;42.696;23.354;2022-09-09T07:07:35;95444.69;;;21.12;62.08
7834;BME280;3962;42.696;23.354;2022-09-09T07:10:03;95444.28;;;21.28;61.77
7834;BME280;3962;42.696;23.354;2022-09-09T07:12:30;95443.84;;;21.44;60.86
7834;BME280;3962;42.696;23.354;2022-09-09T07:14:57;95438.84;;;21.54;60.90
7834;BME280;3962;42.696;23.354;2022-09-09T07:17:26;95426.97;;;21.62;60.50
7834;BME280;3962;42.696;23.354;2022-09-09T07:19:54;95437.22;;;21.66;60.54
7834;BME280;3962;42.696;23.354;2022-09-09T07:22:22;95423.47;;;21.68;60.33
7834;BME280;3962;42.696;23.354;2022-09-09T07:24:49;95436.97;;;21.81;60.20
7834;BME280;3962;42.696;23.354;2022-09-09T07:27:17;95422.94;;;22.03;59.39
7834;BME280;3962;42.696;23.354;2022-09-09T07:29:43;95428.94;;;22.12;59.00
7834;BME280;3962;42.696;23.354;2022-09-09T07:32:10;95432.84;;;22.29;59.22
7834;BME280;3962;42.696;23.354;2022-09-09T07:34:38;95416.66;;;22.60;58.45
7834;BME280;3962;42.696;23.354;2022-09-09T07:37:05;95422.97;;;22.85;57.13
7834;BME280;3962;42.696;23.354;2022-09-09T07:39:33;95419.16;;;22.92;55.45
7834;BME280;3962;42.696;23.354;2022-09-09T07:42:00;95415.47;;;23.11;54.11
7834;BME280;3962;42.696;23.354;2022-09-09T07:44:27;95437.56;;;23.45;53.56
7834;BME280;3962;42.696;23.354;2022-09-09T07:46:54;95434.13;;;24.53;51.38
7834;BME280;3962;42.696;23.354;2022-09-09T07:49:20;95438.91;;;25.57;48.74
7834;BME280;3962;42.696;23.354;2022-09-09T07:51:49;95432.97;;;26.52;47.59
7834;BME280;3962;42.696;23.354;2022-09-09T07:54:17;95440.91;;;27.21;44.52
7834;BME280;3962;42.696;23.354;2022-09-09T07:56:46;95432.94;;;27.48;44.44
7834;BME280;3962;42.696;23.354;2022-09-09T07:59:13;95442.25;;;27.79;43.77
7834;BME280;3962;42.696;23.354;2022-09-09T08:01:42;95434.72;;;28.24;42.70
7834;BME280;3962;42.696;23.354;2022-09-09T08:04:10;95438.19;;;28.36;42.29
7834;BME280;3962;42.696;23.354;2022-09-09T08:06:42;95436.66;;;27.58;43.63
7834;BME280;3962;42.696;23.354;2022-09-09T08:09:12;95432.66;;;27.33;44.17
7834;BME280;3962;42.696;23.354;2022-09-09T08:11:39;95439.34;;;27.25;44.09
7834;BME280;3962;42.696;23.354;2022-09-09T08:14:07;95435.63;;;27.15;44.81
7834;BME280;3962;42.696;23.354;2022-09-09T08:16:36;95432.09;;;27.31;44.74
7834;BME280;3962;42.696;23.354;2022-09-09T08:19:04;95438.34;;;27.75;43.61
7834;BME280;3962;42.696;23.354;2022-09-09T08:21:32;95423.47;;;28.04;42.97
7834;BME280;3962;42.696;23.354;2022-09-09T08:24:00;95424.88;;;28.07;43.43
7834;BME280;3962;42.696;23.354;2022-09-09T08:26:30;95432.22;;;28.23;43.80
7834;BME280;3962;42.696;23.354;2022-09-09T08:28:58;95431.16;;;28.24;43.86
7834;BME280;3962;42.696;23.354;2022-09-09T08:31:27;95429.66;;;28.54;43.26
7834;BME280;3962;42.696;23.354;2022-09-09T08:33:54;95424.03;;;28.23;43.19
7834;BME280;3962;42.696;23.354;2022-09-09T08:36:22;95427.88;;;27.40;44.67
7834;BME280;3962;42.696;23.354;2022-09-09T08:38:52;95415.66;;;26.75;46.27
7834;BME280;3962;42.696;23.354;2022-09-09T08:41:35;95431.06;;;26.53;46.98
7834;BME280;3962;42.696;23.354;2022-09-09T08:44:07;95429.44;;;26.29;46.92
7834;BME280;3962;42.696;23.354;2022-09-09T08:46:44;95418.19;;;26.25;47.63
7834;BME280;3962;42.696;23.354;2022-09-09T08:49:23;95411.06;;;26.24;47.42
7834;BME280;3962;42.696;23.354;2022-09-09T08:51:54;95408.59;;;26.51;47.16
7834;BME280;3962;42.696;23.354;2022-09-09T08:54:23;95409.28;;;26.69;46.38
7834;BME280;3962;42.696;23.354;2022-09-09T08:56:51;95410.66;;;26.83;46.83
7834;BME280;3962;42.696;23.354;2022-09-09T08:59:18;95410.63;;;27.39;45.44
7834;BME280;3962;42.696;23.354;2022-09-09T09:02:00;95414.81;;;27.91;44.19
7834;BME280;3962;42.696;23.354;2022-09-09T09:04:38;95414.38;;;27.82;43.98
7834;BME280;3962;42.696;23.354;2022-09-09T09:07:18;95405.09;;;27.50;44.54
7834;BME280;3962;42.696;23.354;2022-09-09T09:09:57;95404.91;;;26.96;45.61
7834;BME280;3962;42.696;23.354;2022-09-09T09:12:35;95413.69;;;27.26;45.80
7834;BME280;3962;42.696;23.354;2022-09-09T09:15:11;95416.84;;;28.00;44.23
7834;BME280;3962;42.696;23.354;2022-09-09T09:17:42;95419.94;;;28.42;42.42
7834;BME280;3962;42.696;23.354;2022-09-09T09:20:12;95421.28;;;28.61;42.23
7834;BME280;3962;42.696;23.354;2022-09-09T09:22:47;95398.97;;;27.93;43.83
7834;BME280;3962;42.696;23.354;2022-09-09T09:25:18;95407.34;;;27.53;44.71
7834;BME280;3962;42.696;23.354;2022-09-09T09:27:53;95407.91;;;27.23;45.60
7834;BME280;3962;42.696;23.354;2022-09-09T09:30:30;95407.88;;;26.95;46.51
7834;BME280;3962;42.696;23.354;2022-09-09T09:33:02;95403.59;;;26.99;48.14
7834;BME280;3962;42.696;23.354;2022-09-09T09:35:29;95403.69;;;27.04;48.14
7834;BME280;3962;42.696;23.354;2022-09-09T09:37:56;95404.13;;;26.84;47.49
7834;BME280;3962;42.696;23.354;2022-09-09T09:40:23;95402.41;;;26.95;46.46
7834;BME280;3962;42.696;23.354;2022-09-09T09:42:53;95390.59;;;27.06;46.47
7834;BME280;3962;42.696;23.354;2022-09-09T09:45:27;95386.50;;;27.20;46.35
7834;BME280;3962;42.696;23.354;2022-09-09T09:48:01;95389.34;;;27.41;45.65
7834;BME280;3962;42.696;23.354;2022-09-09T09:50:29;95377.16;;;27.65;47.02
7834;BME280;3962;42.696;23.354;2022-09-09T09:52:59;95383.38;;;27.60;46.04
7834;BME280;3962;42.696;23.354;2022-09-09T09:55:28;95379.22;;;27.25;46.55
7834;BME280;3962;42.696;23.354;2022-09-09T09:58:02;95381.88;;;26.92;46.93
7834;BME280;3962;42.696;23.354;2022-09-09T10:00:30;95373.53;;;26.82;46.63
7834;BME280;3962;42.696;23.354;2022-09-09T10:02:59;95360.78;;;26.88;46.83
7834;BME280;3962;42.696;23.354;2022-09-09T10:05:27;95368.34;;;26.97;47.49
7834;BME280;3962;42.696;23.354;2022-09-09T10:08:03;95373.06;;;27.02;47.12
7834;BME280;3962;42.696;23.354;2022-09-09T10:10:46;95381.59;;;27.05;47.26
7834;BME280;3962;42.696;23.354;2022-09-09T10:13:20;95387.06;;;27.05;47.10
7834;BME280;3962;42.696;23.354;2022-09-09T10:16:07;95387.78;;;27.01;47.03
7834;BME280;3962;42.696;23.354;2022-09-09T10:18:52;95386.44;;;26.87;47.44
7834;BME280;3962;42.696;23.354;2022-09-09T10:21:37;95381.06;;;26.64;48.33
7834;BME280;3962;42.696;23.354;2022-09-09T10:24:35;95392.13;;;26.57;49.04
7834;BME280;3962;42.696;23.354;2022-09-09T10:27:15;95397.06;;;26.21;49.87
7834;BME280;3962;42.696;23.354;2022-09-09T10:30:04;95389.28;;;26.01;51.03
7834;BME280;3962;42.696;23.354;2022-09-09T10:32:41;95396.47;;;26.07;50.00
7834;BME280;3962;42.696;23.354;2022-09-09T10:35:14;95389.34;;;26.18;49.04
7834;BME280;3962;42.696;23.354;2022-09-09T10:37:59;95386.38;;;26.31;50.37
7834;BME280;3962;42.696;23.354;2022-09-09T10:40:33;95388.38;;;26.35;50.93
7834;BME280;3962;42.696;23.354;2022-09-09T10:43:15;95386.63;;;26.18;49.89
7834;BME280;3962;42.696;23.354;2022-09-09T10:45:57;95390.44;;;26.17;50.11
7834;BME280;3962;42.696;23.354;2022-09-09T10:48:40;95401.19;;;26.23;50.01
7834;BME280;3962;42.696;23.354;2022-09-09T10:51:22;95400.56;;;26.44;49.72
7834;BME280;3962;42.696;23.354;2022-09-09T10:53:58;95398.78;;;26.38;49.98
7834;BME280;3962;42.696;23.354;2022-09-09T10:56:30;95398.22;;;26.36;50.52
7834;BME280;3962;42.696;23.354;2022-09-09T10:59:01;95400.44;;;26.39;50.51
7834;BME280;3962;42.696;23.354;2022-09-09T11:01:33;95388.50;;;26.40;50.36
7834;BME280;3962;42.696;23.354;2022-09-09T11:04:05;95389.59;;;26.28;50.29
7834;BME280;3962;42.696;23.354;2022-09-09T11:06:40;95393.50;;;26.20;50.72
7834;BME280;3962;42.696;23.354;2022-09-09T11:09:14;95394.69;;;26.24;51.18
7834;BME280;3962;42.696;23.354;2022-09-09T11:11:45;95392.44;;;26.21;51.58
7834;BME280;3962;42.696;23.354;2022-09-09T11:14:20;95384.75;;;26.07;51.30
7834;BME280;3962;42.696;23.354;2022-09-09T11:16:51;95393.03;;;26.12;50.79
7834;BME280;3962;42.696;23.354;2022-09-09T11:19:23;95391.03;;;26.07;51.11
7834;BME280;3962;42.696;23.354;2022-09-09T11:21:52;95383.34;;;26.04;51.48
7834;BME280;3962;42.696;23.354;2022-09-09T11:24:25;95368.63;;;26.17;51.19
7834;BME280;3962;42.696;23.354;2022-09-09T11:26:57;95376.88;;;26.33;51.09
7834;BME280;3962;42.696;23.354;2022-09-09T11:29:44;95365.47;;;26.36;51.07
7834;BME280;3962;42.696;23.354;2022-09-09T11:32:37;95364.00;;;26.45;52.04
7834;BME280;3962;42.696;23.354;2022-09-09T11:35:17;95363.44;;;26.43;51.44
7834;BME280;3962;42.696;23.354;2022-09-09T11:38:03;95358.66;;;26.50;50.77
7834;BME280;3962;42.696;23.354;2022-09-09T11:40:32;95348.00;;;26.49;50.44
7834;BME280;3962;42.696;23.354;2022-09-09T11:43:03;95338.38;;;26.46;50.79
7834;BME280;3962;42.696;23.354;2022-09-09T11:45:33;95344.16;;;26.33;51.34
7834;BME280;3962;42.696;23.354;2022-09-09T11:48:03;95332.50;;;26.38;51.23
7834;BME280;3962;42.696;23.354;2022-09-09T11:50:34;95326.06;;;26.55;51.45
7834;BME280;3962;42.696;23.354;2022-09-09T11:53:21;95309.34;;;26.52;50.64
7834;BME280;3962;42.696;23.354;2022-09-09T11:56:09;95290.44;;;26.22;52.14
7834;BME280;3962;42.696;23.354;2022-09-09T11:58:43;95303.97;;;26.29;51.68
7834;BME280;3962;42.696;23.354;2022-09-09T12:01:29;95311.22;;;26.79;50.82
7834;BME280;3962;42.696;23.354;2022-09-09T12:04:14;95309.28;;;27.24;50.38
7834;BME280;3962;42.696;23.354;2022-09-09T12:06:43;95315.53;;;27.57;49.55
7834;BME280;3962;42.696;23.354;2022-09-09T12:09:18;95317.16;;;27.91;48.88
7834;BME280;3962;42.696;23.354;2022-09-09T12:11:48;95311.53;;;28.41;47.74
7834;BME280;3962;42.696;23.354;2022-09-09T12:14:23;95311.75;;;28.18;47.95
7834;BME280;3962;42.696;23.354;2022-09-09T12:17:09;95297.00;;;28.19;47.95
7834;BME280;3962;42.696;23.354;2022-09-09T12:19:38;95294.22;;;28.14;48.16
7834;BME280;3962;42.696;23.354;2022-09-09T12:22:09;95292.59;;;28.18;47.58
7834;BME280;3962;42.696;23.354;2022-09-09T12:24:43;95282.38;;;27.87;48.35
7834;BME280;3962;42.696;23.354;2022-09-09T12:27:18;95293.56;;;28.07;48.27
7834;BME280;3962;42.696;23.354;2022-09-09T12:29:51;95288.81;;;28.40;47.79
7834;BME280;3962;42.696;23.354;2022-09-09T12:32:25;95291.28;;;28.42;47.57
7834;BME280;3962;42.696;23.354;2022-09-09T12:34:58;95290.97;;;28.38;47.79
7834;BME280;3962;42.696;23.354;2022-09-09T12:37:31;95279.22;;;28.16;48.49
7834;BME280;3962;42.696;23.354;2022-09-09T12:40:00;95276.66;;;27.72;49.23
7834;BME280;3962;42.696;23.354;2022-09-09T12:42:28;95274.53;;;27.57;50.35
7834;BME280;3962;42.696;23.354;2022-09-09T12:44:57;95266.97;;;27.27;50.97
7834;BME280;3962;42.696;23.354;2022-09-09T12:47:30;95268.13;;;26.81;51.71
7834;BME280;3962;42.696;23.354;2022-09-09T12:50:02;95266.44;;;26.64;52.99
7834;BME280;3962;42.696;23.354;2022-09-09T12:52:32;95258.00;;;26.65;52.56
7834;BME280;3962;42.696;23.354;2022-09-09T12:55:02;95263.88;;;26.74;52.86
7834;BME280;3962;42.696;23.354;2022-09-09T12:57:36;95258.59;;;27.00;52.16
7834;BME280;3962;42.696;23.354;2022-09-09T13:00:07;95256.16;;;27.53;50.92
7834;BME280;3962;42.696;23.354;2022-09-09T13:02:45;95243.31;;;27.91;50.15
7834;BME280;3962;42.696;23.354;2022-09-09T13:05:16;95260.31;;;27.93;49.43
7834;BME280;3962;42.696;23.354;2022-09-09T13:07:43;95253.16;;;27.92;49.67
7834;BME280;3962;42.696;23.354;2022-09-09T13:10:12;95245.25;;;27.91;49.25
7834;BME280;3962;42.696;23.354;2022-09-09T13:12:39;95251.97;;;28.05;49.32
7834;BME280;3962;42.696;23.354;2022-09-09T13:15:20;95250.00;;;27.79;49.90
7834;BME280;3962;42.696;23.354;2022-09-09T13:17:53;95244.66;;;27.51;51.36
7834;BME280;3962;42.696;23.354;2022-09-09T13:20:23;95243.59;;;27.73;50.97
7834;BME280;3962;42.696;23.354;2022-09-09T13:22:52;95243.94;;;27.98;50.02
7834;BME280;3962;42.696;23.354;2022-09-09T13:25:22;95236.06;;;28.02;50.42
7834;BME280;3962;42.696;23.354;2022-09-09T13:27:57;95226.59;;;27.88;50.47
7834;BME280;3962;42.696;23.354;2022-09-09T13:30:26;95223.25;;;27.64;50.87
7834;BME280;3962;42.696;23.354;2022-09-09T13:33:20;95218.09;;;27.47;51.40
7834;BME280;3962;42.696;23.354;2022-09-09T13:35:51;95213.97;;;27.28;52.02